Flight Track Log - Related Links

Times and Time Zones

All times are in EDT time to prevent confusion due to time zone crossing. See the LBQ792 flight status page for this flight to view local times or setup timezone preferences in your user account.


Time Position Orientation Groundspeed Altitude Reporting Facility
EDT Latitude Longitude Course Direction KTS MPH feet Rate Location/Type
Tue 08:35:42 PM 40.4264 -76.1994 352° North 231 266 5,000  Level New York Center
Tue 08:36:43 PM 40.4517 -76.2806 292° West 239 275 5,800 1,140 Climbing New York Center
Tue 08:37:43 PM 40.4756 -76.3533 293° West 227 261 7,300 1,487 Climbing New York Center
Tue 08:38:00 PM 40.5167 -76.4374 270° West  Level FlightAware Approximate
Tue 08:38:40 PM 40.5247 -76.3711 345° North 186 214 8,700  Level New York Center
Tue 08:39:00 PM 40.5363 -76.5284 288° West  Level FlightAware Approximate
Tue 08:39:42 PM 40.5783 -76.3836 350° North 181 208 10,200  Level New York Center
Tue 08:40:00 PM 40.5775 -76.5925 346° North  Level FlightAware Approximate
Tue 08:40:42 PM 40.6294 -76.4014 345° North 187 215 11,500  Level New York Center
Tue 08:41:00 PM 40.6489 -76.6028 352° North  Level FlightAware Approximate
Tue 08:41:43 PM 40.6889 -76.4200 347° North 203 234 12,000  Level New York Center
Tue 08:42:41 PM 40.7547 -76.4392 348° North 224 258 12,000  Level New York Center
Tue 08:43:42 PM 40.8267 -76.4642 345° North 261 300 12,000  Level New York Center
Tue 08:44:43 PM 40.8964 -76.4867 346° North 261 300 12,000  Level New York Center
Tue 08:45:41 PM 40.9622 -76.5031 349° North 261 300 12,000  Level New York Center
Tue 08:46:41 PM 41.0339 -76.5256 347° North 256 295 12,000  Level New York Center
Tue 08:47:41 PM 41.1119 -76.5489 347° North 256 295 12,000  Level New York Center
Tue 08:48:41 PM 41.1858 -76.5744 345° North 256 295 12,000  Level New York Center
Tue 08:49:42 PM 41.2556 -76.5969 346° North 256 295 12,000  Level New York Center
Tue 08:50:42 PM 41.3211 -76.6192 346° North 256 295 12,000  Level New York Center
Tue 08:51:43 PM 41.3911 -76.6392 348° North 256 295 12,000  Level New York Center
Tue 08:52:43 PM 41.4689 -76.6653 346° North 256 295 12,000  Level New York Center
Tue 08:53:40 PM 41.5406 -76.6883 346° North 256 295 12,000 -200 Level New York Center
Tue 08:54:43 PM 41.6061 -76.7133 344° North 263 303 11,600 -843 Descending New York Center
Tue 08:55:41 PM 41.6839 -76.7369 347° North 269 310 10,300 -1,322 Descending New York Center
Tue 08:56:41 PM 41.7578 -76.7603 347° North 275 316 9,000 -1,250 Descending New York Center
Tue 08:57:41 PM 41.8253 -76.7831 346° North 269 310 7,800 -1,200 Descending New York Center

Login

Don't have an account? Register now (free) for customized features, flight alerts, and more!